createdAt,value
2023-05-19T00:00:34.692Z,13885.7695
2023-05-19T00:01:35.777Z,13881.3076
2023-05-19T00:02:37.289Z,13878.6924
2023-05-19T00:03:38.728Z,13880.0000
2023-05-19T00:04:40.141Z,13877.1543
2023-05-19T00:05:41.514Z,13877.6152
2023-05-19T00:06:42.959Z,13880.5381
2023-05-19T00:07:44.355Z,13882.6924
2023-05-19T00:08:45.886Z,13881.8457
2023-05-19T00:09:47.269Z,13887.3848
2023-05-19T00:10:48.643Z,13879.8457
2023-05-19T00:11:50.032Z,13877.3848
2023-05-19T00:12:53.725Z,13875.5381
2023-05-19T00:13:52.906Z,13878.6924
2023-05-19T00:14:54.417Z,13879.4619
2023-05-19T00:15:55.773Z,13883.6152
2023-05-19T00:16:57.286Z,13882.3848
2023-05-19T00:17:58.724Z,13882.3848
2023-05-19T00:19:00.164Z,13883.0771
2023-05-19T00:20:01.416Z,13881.9229
2023-05-19T00:21:02.890Z,13882.3848
2023-05-19T00:22:04.281Z,13875.3076
2023-05-19T00:23:05.738Z,13878.8457
2023-05-19T00:24:07.219Z,13880.8457
2023-05-19T00:25:08.644Z,13878.4619
2023-05-19T00:26:09.984Z,13878.0771
2023-05-19T00:27:11.396Z,13882.2305
2023-05-19T00:28:12.741Z,13882.5381
2023-05-19T00:29:14.307Z,13881.3076
2023-05-19T00:30:15.680Z,13877.6152
2023-05-19T00:31:17.215Z,13883.4619
2023-05-19T00:32:18.650Z,13877.6152
2023-05-19T00:33:19.961Z,13890.6924
2023-05-19T00:34:21.426Z,13883.7695
2023-05-19T00:35:22.856Z,13886.0771
2023-05-19T00:36:24.146Z,13887.2305
2023-05-19T00:37:25.673Z,13880.8457
2023-05-19T00:38:27.170Z,13880.0000
2023-05-19T00:39:28.512Z,13880.6924
2023-05-19T00:40:30.106Z,13879.6152
2023-05-19T00:41:31.420Z,13885.3848
2023-05-19T00:42:32.792Z,13878.9229
2023-05-19T00:43:34.270Z,13881.3848
2023-05-19T00:44:35.604Z,13883.8457
2023-05-19T00:45:37.151Z,13883.3848
2023-05-19T00:46:38.574Z,13880.1543
2023-05-19T00:47:39.968Z,13880.9229
2023-05-19T00:48:41.342Z,13883.0771
2023-05-19T00:49:42.796Z,13885.3848
2023-05-19T00:50:44.220Z,13879.4619
2023-05-19T00:51:45.586Z,13881.7695
2023-05-19T00:52:46.988Z,13882.0000
2023-05-19T00:53:48.587Z,13882.9229
2023-05-19T00:54:49.886Z,13881.0771
2023-05-19T00:55:51.389Z,13876.5381
2023-05-19T00:56:52.796Z,13881.9229
2023-05-19T00:57:54.201Z,13878.8457
2023-05-19T00:58:55.654Z,13881.6152
2023-05-19T00:59:57.064Z,13881.7695
2023-05-19T01:00:58.601Z,13882.5381
2023-05-19T01:01:59.924Z,13881.8457
2023-05-19T01:03:01.371Z,13886.2305
2023-05-19T01:04:02.868Z,13877.4619
2023-05-19T01:05:04.174Z,13881.1543
2023-05-19T01:06:05.542Z,13879.9229
2023-05-19T01:07:07.013Z,13881.2305
2023-05-19T01:08:08.468Z,13880.0771
2023-05-19T01:09:09.847Z,13885.4619
2023-05-19T01:10:11.250Z,13884.9229
2023-05-19T01:11:12.723Z,13883.4619
2023-05-19T01:12:14.122Z,13887.0000
2023-05-19T01:13:15.621Z,13885.4619
2023-05-19T01:14:16.880Z,13881.2305
2023-05-19T01:15:18.419Z,13886.6924
2023-05-19T01:16:19.888Z,13884.9229
2023-05-19T01:17:21.250Z,13886.6152
2023-05-19T01:18:22.643Z,13883.6152
2023-05-19T01:19:24.137Z,13884.0771
2023-05-19T01:20:25.485Z,13879.0771
2023-05-19T01:21:27.028Z,13885.2305
2023-05-19T01:22:28.357Z,13883.3848
2023-05-19T01:23:29.793Z,13880.5381
2023-05-19T01:24:31.195Z,13882.3076
2023-05-19T01:25:32.656Z,13884.0000
2023-05-19T01:26:34.059Z,13882.6152
2023-05-19T01:27:50.302Z,13883.6152
2023-05-19T01:28:36.895Z,13887.5000
2023-05-19T01:29:38.291Z,13884.8457
2023-05-19T01:30:39.810Z,13885.0771
2023-05-19T01:31:41.310Z,13889.2305
2023-05-19T01:32:42.651Z,13885.2305
2023-05-19T01:33:44.020Z,13885.0000
2023-05-19T01:34:45.480Z,13884.9229
2023-05-19T01:35:46.814Z,13887.1543
2023-05-19T01:36:48.298Z,13885.0000
2023-05-19T01:37:49.690Z,13892.6924
2023-05-19T01:38:51.195Z,13881.7695
2023-05-19T01:39:52.605Z,13883.5381
2023-05-19T01:40:54.043Z,13891.5381
2023-05-19T01:41:55.514Z,13885.6152
2023-05-19T01:42:57.866Z,13881.0771
2023-05-19T01:43:58.268Z,13884.3076
2023-05-19T01:44:59.643Z,13880.8457
2023-05-19T01:46:01.149Z,13882.2305
2023-05-19T01:47:02.593Z,13882.8457
2023-05-19T01:48:04.007Z,13882.6924
2023-05-19T01:49:05.439Z,13887.1543
2023-05-19T01:50:06.809Z,13885.3848
2023-05-19T01:51:08.288Z,13882.1543
2023-05-19T01:52:09.733Z,13883.8457
2023-05-19T01:53:11.150Z,13881.7695
2023-05-19T01:54:12.559Z,13882.0000
2023-05-19T01:55:14.061Z,13879.8457
2023-05-19T01:56:15.378Z,13886.9229
2023-05-19T01:57:16.849Z,13884.4619
2023-05-19T01:58:18.203Z,13882.3848
2023-05-19T01:59:19.643Z,13885.0000
2023-05-19T02:00:21.406Z,13886.6924
2023-05-19T02:01:22.470Z,13882.7695
2023-05-19T02:02:24.014Z,13884.2305
2023-05-19T02:03:25.397Z,13885.0000
2023-05-19T02:04:26.917Z,13888.1543
2023-05-19T02:05:28.209Z,13885.3076
2023-05-19T02:06:29.623Z,13884.0771
2023-05-19T02:07:30.983Z,13882.3076
2023-05-19T02:08:32.474Z,13887.0771
2023-05-19T02:09:33.918Z,13880.8457
2023-05-19T02:10:35.338Z,13879.5381
2023-05-19T02:11:36.721Z,13879.7695
2023-05-19T02:12:38.266Z,13882.0771
2023-05-19T02:13:39.564Z,13884.0000
2023-05-19T02:14:41.045Z,13881.0000
2023-05-19T02:15:42.539Z,13880.9229
2023-05-19T02:16:43.821Z,13880.6152
2023-05-19T02:17:45.366Z,13886.6924
2023-05-19T02:18:46.714Z,13888.5381
2023-05-19T02:19:48.171Z,13884.3076
2023-05-19T02:20:49.548Z,13883.6924
2023-05-19T02:21:50.990Z,13885.8457
2023-05-19T02:22:52.375Z,13889.6924
2023-05-19T02:23:53.869Z,13886.0771
2023-05-19T02:24:55.288Z,13887.3848
2023-05-19T02:25:56.800Z,13888.6152
2023-05-19T02:26:58.083Z,13887.6924
2023-05-19T02:27:59.679Z,13888.6924
2023-05-19T02:29:01.097Z,13888.3848
2023-05-19T02:30:02.530Z,13889.3848
2023-05-19T02:31:03.921Z,13887.2305
2023-05-19T02:32:05.494Z,13890.3076
2023-05-19T02:33:06.856Z,13884.6924
2023-05-19T02:34:08.207Z,13882.3076
2023-05-19T02:35:09.649Z,13883.6924
2023-05-19T02:36:11.009Z,13885.5381
2023-05-19T02:37:12.456Z,13887.6924
2023-05-19T02:38:13.911Z,13884.7695
2023-05-19T02:39:15.260Z,13885.1543
2023-05-19T02:40:16.640Z,13881.9229
2023-05-19T02:41:18.107Z,13886.7695
2023-05-19T02:42:19.486Z,13888.6152
2023-05-19T02:43:21.033Z,13886.0771
2023-05-19T02:44:22.468Z,13885.1543
2023-05-19T02:45:23.805Z,13894.9229
2023-05-19T02:46:25.309Z,13890.3076
2023-05-19T02:47:26.712Z,13888.9229
2023-05-19T02:48:28.281Z,13890.6924
2023-05-19T02:49:29.559Z,13888.5381
2023-05-19T02:50:31.215Z,13890.4619
2023-05-19T02:51:32.456Z,13889.5381
2023-05-19T02:52:33.910Z,13887.0000
2023-05-19T02:53:35.286Z,13889.2305
2023-05-19T02:54:36.685Z,13890.2305
2023-05-19T02:55:38.112Z,13888.1543
2023-05-19T02:56:39.578Z,13886.7695
2023-05-19T02:57:41.017Z,13889.1543
2023-05-19T02:58:42.480Z,13889.6152
2023-05-19T02:59:43.868Z,13888.6924
2023-05-19T03:00:45.313Z,13889.7695
2023-05-19T03:01:46.722Z,13883.3076
2023-05-19T03:02:48.216Z,13891.3848
2023-05-19T03:03:49.676Z,13895.8457
2023-05-19T03:04:51.010Z,13888.8457
2023-05-19T03:05:52.471Z,13888.2305
2023-05-19T03:06:53.826Z,13887.6924
2023-05-19T03:07:55.322Z,13889.4619
2023-05-19T03:08:57.266Z,13888.9229
2023-05-19T03:09:58.141Z,13884.2305
2023-05-19T03:10:59.553Z,13886.0771
2023-05-19T03:12:00.993Z,13893.8457
2023-05-19T03:13:02.404Z,13892.3076
2023-05-19T03:14:03.874Z,13890.9229
2023-05-19T03:15:05.252Z,13888.3848
2023-05-19T03:16:06.782Z,13886.6924
2023-05-19T03:17:08.328Z,13887.4619
2023-05-19T03:18:09.629Z,13885.3848
2023-05-19T03:19:11.023Z,13891.7695
2023-05-19T03:20:12.534Z,13888.5381
2023-05-19T03:21:13.792Z,13894.4619
2023-05-19T03:22:15.236Z,13890.0771
2023-05-19T03:23:16.629Z,13888.1543
2023-05-19T03:24:18.250Z,13889.7695
2023-05-19T03:25:19.443Z,13891.2305
2023-05-19T03:26:20.953Z,13889.8457
2023-05-19T03:27:22.379Z,13890.9229
2023-05-19T03:28:23.794Z,13892.0771
2023-05-19T03:29:25.262Z,13890.1543
2023-05-19T03:30:26.695Z,13892.1543
2023-05-19T03:31:28.066Z,13897.9229
2023-05-19T03:32:29.590Z,13895.8457
2023-05-19T03:33:31.084Z,13893.5381
2023-05-19T03:34:32.377Z,13893.2305
2023-05-19T03:35:33.764Z,13892.7695
2023-05-19T03:36:35.192Z,13889.0771
2023-05-19T03:37:36.612Z,13889.0771
2023-05-19T03:38:37.969Z,13887.5381
2023-05-19T03:39:40.385Z,13895.5381
2023-05-19T03:40:40.951Z,13896.0000
2023-05-19T03:41:42.268Z,13893.7695
2023-05-19T03:42:43.751Z,13889.4619
2023-05-19T03:43:45.140Z,13888.4619
2023-05-19T03:44:46.610Z,13888.5381
2023-05-19T03:45:48.053Z,13887.3076
2023-05-19T03:46:49.488Z,13886.0000
2023-05-19T03:47:50.902Z,13890.6152
2023-05-19T03:48:52.381Z,13893.3076
2023-05-19T03:49:53.736Z,13895.4619
2023-05-19T03:50:55.270Z,13892.1543
2023-05-19T03:51:56.537Z,13891.5381
2023-05-19T03:52:58.100Z,13890.7695
2023-05-19T03:53:59.403Z,13890.2305
2023-05-19T03:55:00.901Z,13891.3848
2023-05-19T03:56:02.283Z,13891.2305
2023-05-19T03:57:03.722Z,13892.3848
2023-05-19T03:58:05.037Z,13888.5381
2023-05-19T03:59:06.542Z,13898.2305
2023-05-19T04:00:08.007Z,13893.6152
2023-05-19T04:01:09.433Z,13894.0771
2023-05-19T04:02:10.929Z,13894.6924
2023-05-19T04:03:12.270Z,13891.7695
2023-05-19T04:04:13.726Z,13891.2305
2023-05-19T04:05:15.141Z,13890.7695
2023-05-19T04:06:16.404Z,13896.6152
2023-05-19T04:07:17.930Z,13891.6152
2023-05-19T04:08:19.334Z,13890.0000
2023-05-19T04:09:20.718Z,13889.9229
2023-05-19T04:10:22.305Z,13886.0771
2023-05-19T04:11:23.572Z,13888.3076
2023-05-19T04:12:25.079Z,13887.1543
2023-05-19T04:13:26.395Z,13887.8457
2023-05-19T04:14:27.896Z,13882.4619
2023-05-19T04:15:29.366Z,13885.4619
2023-05-19T04:16:30.929Z,13883.3848
2023-05-19T04:17:32.223Z,13882.6152
2023-05-19T04:18:33.593Z,13884.6924
2023-05-19T04:19:34.981Z,13884.3848
2023-05-19T04:20:36.455Z,13886.1543
2023-05-19T04:21:37.820Z,13884.3076
2023-05-19T04:22:39.270Z,13879.5381
2023-05-19T04:23:40.777Z,13881.0771
2023-05-19T04:24:42.166Z,13883.9229
2023-05-19T04:25:43.534Z,13882.3848
2023-05-19T04:26:45.014Z,13886.2305
2023-05-19T04:27:46.453Z,13886.6152
2023-05-19T04:28:47.860Z,13884.8457
2023-05-19T04:29:49.208Z,13884.1543
2023-05-19T04:30:50.742Z,13879.3848
2023-05-19T04:31:52.062Z,13878.6152
2023-05-19T04:32:53.572Z,13880.1543
2023-05-19T04:33:55.010Z,13881.9229
2023-05-19T04:34:56.365Z,13878.6924
2023-05-19T04:35:57.836Z,13880.7695
2023-05-19T04:36:59.284Z,13880.1543
2023-05-19T04:38:00.577Z,13881.3076
2023-05-19T04:39:02.115Z,13877.3076
2023-05-19T04:40:03.568Z,13876.4619
2023-05-19T04:41:04.990Z,13875.8457
2023-05-19T04:42:06.299Z,13875.3848
2023-05-19T04:43:07.887Z,13876.6924
2023-05-19T04:44:09.337Z,13870.6152
2023-05-19T04:45:10.516Z,13876.5381
2023-05-19T04:46:13.414Z,13873.0771
2023-05-19T04:47:13.593Z,13872.6152
2023-05-19T04:48:14.984Z,13876.0000
2023-05-19T04:49:16.293Z,13873.7695
2023-05-19T04:50:17.750Z,13872.1543
2023-05-19T04:51:19.177Z,13873.2305
2023-05-19T04:52:20.624Z,13871.7695
2023-05-19T04:53:22.018Z,13874.6924
2023-05-19T04:54:23.348Z,13867.2305
2023-05-19T04:55:24.800Z,13869.6152
2023-05-19T04:56:26.331Z,13873.3848
2023-05-19T04:57:27.708Z,13874.6924
2023-05-19T04:58:29.118Z,13872.3848
2023-05-19T04:59:30.558Z,13868.7695
2023-05-19T05:00:32.111Z,13867.6152
2023-05-19T05:01:33.362Z,13869.3076
2023-05-19T05:02:34.930Z,13871.4619
2023-05-19T05:03:36.211Z,13865.5381
2023-05-19T05:04:37.717Z,13867.5381
2023-05-19T05:05:39.025Z,13862.3848
2023-05-19T05:06:40.546Z,13866.3076
2023-05-19T05:07:41.937Z,13869.3076
2023-05-19T05:08:43.313Z,13862.4619
2023-05-19T05:09:44.796Z,13867.6924
2023-05-19T05:10:46.175Z,13864.6152
2023-05-19T05:11:47.590Z,13863.0000
2023-05-19T05:12:49.005Z,13862.3848
2023-05-19T05:13:50.404Z,13863.9229
2023-05-19T05:14:51.796Z,13867.7695
2023-05-19T05:15:53.166Z,13860.0771
2023-05-19T05:16:54.761Z,13867.3848
2023-05-19T05:17:56.207Z,13867.0000
2023-05-19T05:18:57.640Z,13867.5381
2023-05-19T05:19:59.016Z,13861.6152
2023-05-19T05:21:00.347Z,13867.1543
2023-05-19T05:22:01.812Z,13865.5381
2023-05-19T05:23:03.225Z,13862.0000
2023-05-19T05:24:04.657Z,13859.5381
2023-05-19T05:25:06.010Z,13862.3076
2023-05-19T05:26:07.537Z,13858.6924
2023-05-19T05:27:08.898Z,13864.3848
2023-05-19T05:28:10.380Z,13865.2305
2023-05-19T05:29:11.747Z,13856.9229
2023-05-19T05:30:13.242Z,13859.7695
2023-05-19T05:31:14.565Z,13857.0000
2023-05-19T05:32:16.104Z,13861.9229
2023-05-19T05:33:17.626Z,13860.0000
2023-05-19T05:34:18.895Z,13858.5381
2023-05-19T05:35:20.397Z,13856.3076
2023-05-19T05:36:21.740Z,13857.9229
2023-05-19T05:37:23.174Z,13860.4619
2023-05-19T05:38:24.615Z,13852.7695
2023-05-19T05:39:25.995Z,13852.6152
2023-05-19T05:40:27.428Z,13855.6152
2023-05-19T05:41:28.801Z,13857.9229
2023-05-19T05:42:30.388Z,13856.3848
2023-05-19T05:43:31.737Z,13858.0000
2023-05-19T05:44:33.128Z,13851.3076
2023-05-19T05:45:34.711Z,13854.7695
2023-05-19T05:46:35.865Z,13852.6924
2023-05-19T05:47:37.389Z,13851.1543
2023-05-19T05:48:38.890Z,13848.6924
2023-05-19T05:49:40.154Z,13850.6924
2023-05-19T05:50:41.613Z,13846.3848
2023-05-19T05:51:48.456Z,13851.7695
2023-05-19T05:52:44.530Z,13850.7500
2023-05-19T05:53:45.919Z,13849.8457
2023-05-19T05:54:47.395Z,13849.6152
2023-05-19T05:55:48.771Z,13851.3848
2023-05-19T05:56:50.226Z,13845.3848
2023-05-19T05:57:51.593Z,13848.6152
2023-05-19T05:58:53.036Z,13846.5381
2023-05-19T05:59:54.445Z,13850.0000
2023-05-19T06:00:55.832Z,13843.6152
2023-05-19T06:01:57.248Z,13847.0771
2023-05-19T06:02:58.882Z,13846.0000
2023-05-19T06:04:00.141Z,13847.1543
2023-05-19T06:05:01.613Z,13843.0000
2023-05-19T06:06:03.010Z,13842.0771
2023-05-19T06:07:04.337Z,13832.5381
2023-05-19T06:08:05.874Z,13826.6924
2023-05-19T06:09:07.256Z,13820.7695
2023-05-19T06:10:08.581Z,13816.3848
2023-05-19T06:11:10.058Z,13802.3076
2023-05-19T06:12:11.470Z,13813.3848
2023-05-19T06:13:13.019Z,13804.8457
2023-05-19T06:14:14.335Z,13804.3848
2023-05-19T06:15:15.776Z,13794.4619
2023-05-19T06:16:17.208Z,13794.0000
2023-05-19T06:17:18.602Z,13781.1543
2023-05-19T06:18:20.054Z,13767.0771
2023-05-19T06:19:21.460Z,13749.8457
2023-05-19T06:20:22.887Z,13741.5381
2023-05-19T06:21:24.248Z,13738.3076
2023-05-19T06:22:25.709Z,13736.1543
2023-05-19T06:23:27.168Z,13732.6152
2023-05-19T06:24:28.635Z,13725.3848
2023-05-19T06:25:29.968Z,13721.2305
2023-05-19T06:26:31.283Z,13706.7695
2023-05-19T06:27:34.644Z,13700.7695
2023-05-19T06:28:34.245Z,13694.3848
2023-05-19T06:29:35.793Z,13682.9229
2023-05-19T06:30:37.160Z,13680.8457
2023-05-19T06:31:38.488Z,13677.1543
2023-05-19T06:32:40.044Z,13677.9229
2023-05-19T06:33:41.521Z,13672.9229
2023-05-19T06:34:42.943Z,13686.3848
2023-05-19T06:35:44.261Z,13704.9229
2023-05-19T06:36:45.767Z,13698.5381
2023-05-19T06:37:47.118Z,13677.3848
2023-05-19T06:38:49.398Z,13666.7695
2023-05-19T06:39:49.968Z,13657.8457
2023-05-19T06:40:51.409Z,13656.6152
2023-05-19T06:41:52.786Z,13685.3076
2023-05-19T06:42:54.115Z,13690.2305
2023-05-19T06:43:55.682Z,13676.0771
2023-05-19T06:44:57.097Z,13659.3076
2023-05-19T06:45:58.355Z,13659.0000
2023-05-19T06:46:59.892Z,13656.3076
2023-05-19T06:48:01.349Z,13648.5381
2023-05-19T06:49:02.756Z,13672.2305
2023-05-19T06:50:04.185Z,13682.2305
2023-05-19T06:51:05.834Z,13678.0771
2023-05-19T06:52:06.974Z,13674.8457
2023-05-19T06:53:08.419Z,13673.5381
2023-05-19T06:54:09.880Z,13649.3076
2023-05-19T06:55:11.906Z,13643.9229
2023-05-19T06:56:12.758Z,13676.3076
2023-05-19T06:57:14.105Z,13675.9229
2023-05-19T06:58:15.529Z,13671.4619
2023-05-19T06:59:17.044Z,13667.1543
2023-05-19T07:00:19.954Z,13662.8457
2023-05-19T07:01:19.793Z,13643.0000
2023-05-19T07:02:21.184Z,13636.0000
2023-05-19T07:03:22.805Z,13666.6152
2023-05-19T07:04:24.088Z,13668.0000
2023-05-19T07:05:26.449Z,13662.8457
2023-05-19T07:06:26.865Z,13651.4619
2023-05-19T07:07:28.240Z,13631.0000
2023-05-19T07:08:29.764Z,13619.6924
2023-05-19T07:09:31.227Z,13639.8457
2023-05-19T07:10:32.824Z,13664.2305
2023-05-19T07:11:33.973Z,13651.7695
2023-05-19T07:12:35.394Z,13650.6924
2023-05-19T07:13:36.868Z,13647.5381
2023-05-19T07:14:38.318Z,13625.0771
2023-05-19T07:15:39.782Z,13624.4619
2023-05-19T07:16:41.128Z,13662.6152
2023-05-19T07:17:42.570Z,13654.4619
2023-05-19T07:18:44.044Z,13643.7695
2023-05-19T07:19:45.381Z,13640.0771
2023-05-19T07:20:46.884Z,13628.6924
2023-05-19T07:21:48.258Z,13624.0771
2023-05-19T07:22:49.615Z,13662.2305
2023-05-19T07:23:51.076Z,13654.4619
2023-05-19T07:24:52.555Z,13638.8457
2023-05-19T07:25:54.415Z,13637.0000
2023-05-19T07:26:55.382Z,13630.9229
2023-05-19T07:27:56.777Z,13624.3848
2023-05-19T07:28:58.230Z,13656.4619
2023-05-19T07:29:59.617Z,13654.6152
2023-05-19T07:31:01.187Z,13640.1543
2023-05-19T07:32:02.567Z,13630.6924
2023-05-19T07:33:03.919Z,13626.9229
2023-05-19T07:34:05.330Z,13617.6924
2023-05-19T07:35:06.688Z,13643.2305
2023-05-19T07:36:08.210Z,13644.1543
2023-05-19T07:37:09.512Z,13620.3076
2023-05-19T07:38:11.091Z,13599.0000
2023-05-19T07:39:12.433Z,13587.1543
2023-05-19T07:40:13.865Z,13586.0000
2023-05-19T07:41:15.333Z,13631.1543
2023-05-19T07:42:16.642Z,13635.5381
2023-05-19T07:43:17.987Z,13614.0000
2023-05-19T07:44:19.538Z,13602.7695
2023-05-19T07:45:21.008Z,13596.9229
2023-05-19T07:46:22.550Z,13595.0000
